createdAt,value
2019-03-17T00:02:20.196Z,3.83
2019-03-17T00:04:48.693Z,3.60
2019-03-17T00:07:17.117Z,4.05
2019-03-17T00:09:45.862Z,4.28
2019-03-17T00:12:14.348Z,4.60
2019-03-17T00:14:42.782Z,4.72
2019-03-17T00:17:11.507Z,4.25
2019-03-17T00:19:40.130Z,4.92
2019-03-17T00:22:08.654Z,4.65
2019-03-17T00:24:37.493Z,4.25
2019-03-17T00:27:06.385Z,5.12
2019-03-17T00:29:34.820Z,5.15
2019-03-17T00:32:03.426Z,5.50
2019-03-17T00:34:43.249Z,5.35
2019-03-17T00:37:01.995Z,5.50
2019-03-17T00:39:30.577Z,6.00
2019-03-17T00:41:59.000Z,6.03
2019-03-17T00:44:27.433Z,6.37
2019-03-17T00:46:55.926Z,6.70
2019-03-17T00:49:24.352Z,6.75
2019-03-17T00:51:52.780Z,6.03
2019-03-17T00:54:21.587Z,6.42
2019-03-17T00:56:50.008Z,6.55
2019-03-17T00:59:18.493Z,6.45
2019-03-17T01:01:46.943Z,6.60
2019-03-17T01:04:15.474Z,6.53
2019-03-17T01:06:43.917Z,6.97
2019-03-17T01:09:12.358Z,6.85
2019-03-17T01:11:40.875Z,6.65
2019-03-17T01:14:09.301Z,6.72
2019-03-17T01:16:37.944Z,6.87
2019-03-17T01:19:06.433Z,7.05
2019-03-17T01:21:34.844Z,7.47
2019-03-17T01:24:03.299Z,7.00
2019-03-17T01:26:31.884Z,6.85
2019-03-17T01:29:00.523Z,6.25
2019-03-17T01:31:29.000Z,6.95
2019-03-17T01:33:57.445Z,6.55
2019-03-17T01:36:25.991Z,6.90
2019-03-17T01:38:54.453Z,7.08
2019-03-17T01:41:22.874Z,6.95
2019-03-17T01:43:51.318Z,6.50
2019-03-17T01:46:19.787Z,6.08
2019-03-17T01:48:48.228Z,6.92
2019-03-17T01:51:16.769Z,7.12
2019-03-17T01:53:45.385Z,6.72
2019-03-17T01:56:13.817Z,6.97
2019-03-17T01:58:42.308Z,6.67
2019-03-17T02:01:11.939Z,7.15
2019-03-17T02:03:40.752Z,6.58
2019-03-17T02:06:12.253Z,6.90
2019-03-17T02:08:41.168Z,6.90
2019-03-17T02:11:09.622Z,6.90
2019-03-17T02:13:38.077Z,7.05
2019-03-17T02:16:07.021Z,7.67
2019-03-17T02:18:35.468Z,7.55
2019-03-17T02:21:03.904Z,6.42
2019-03-17T02:23:32.399Z,6.97
2019-03-17T02:26:01.934Z,7.33
2019-03-17T02:28:30.413Z,7.00
2019-03-17T02:30:58.855Z,6.78
2019-03-17T02:33:27.299Z,6.80
2019-03-17T02:35:55.864Z,7.25
2019-03-17T02:38:24.306Z,6.78
2019-03-17T02:40:52.752Z,6.67
2019-03-17T02:43:21.759Z,6.95
2019-03-17T02:45:50.194Z,6.50
2019-03-17T02:48:18.735Z,6.87
2019-03-17T02:50:47.634Z,6.45
2019-03-17T02:53:16.056Z,6.60
2019-03-17T02:55:44.502Z,5.92
2019-03-17T02:58:13.070Z,6.92
2019-03-17T03:00:41.518Z,6.30
2019-03-17T03:03:09.950Z,6.70
2019-03-17T03:05:53.557Z,6.42
2019-03-17T03:08:08.683Z,7.50
2019-03-17T03:10:37.141Z,7.17
2019-03-17T03:13:05.769Z,7.65
2019-03-17T03:15:34.217Z,6.92
2019-03-17T03:18:02.629Z,7.20
2019-03-17T03:20:31.089Z,7.37
2019-03-17T03:22:59.526Z,7.05
2019-03-17T03:25:27.976Z,7.03
2019-03-17T03:27:56.670Z,7.03
2019-03-17T03:30:25.082Z,6.80
2019-03-17T03:32:53.621Z,7.40
2019-03-17T03:35:22.117Z,7.50
2019-03-17T03:37:50.563Z,7.85
2019-03-17T03:40:19.002Z,7.67
2019-03-17T03:42:47.901Z,7.60
2019-03-17T03:45:16.418Z,7.78
2019-03-17T03:47:44.856Z,7.83
2019-03-17T03:50:13.652Z,8.25
2019-03-17T03:52:42.035Z,8.08
2019-03-17T03:55:10.554Z,8.33
2019-03-17T03:57:39.067Z,8.50
2019-03-17T04:00:10.712Z,8.98
2019-03-17T04:02:39.366Z,9.20
2019-03-17T04:05:08.249Z,9.50
2019-03-17T04:07:36.669Z,9.10
2019-03-17T04:10:08.055Z,8.93
2019-03-17T04:12:36.916Z,8.33
2019-03-17T04:15:07.495Z,9.15
2019-03-17T04:17:35.919Z,8.83
2019-03-17T04:20:06.425Z,8.40
2019-03-17T04:22:34.881Z,8.45
2019-03-17T04:25:03.951Z,8.48
2019-03-17T04:27:32.925Z,8.38
2019-03-17T04:30:01.347Z,7.80
2019-03-17T04:32:29.785Z,7.08
2019-03-17T04:34:58.384Z,6.90
2019-03-17T04:37:26.825Z,6.55
2019-03-17T04:39:56.073Z,6.62
2019-03-17T04:42:24.529Z,6.33
2019-03-17T04:44:52.990Z,6.72
2019-03-17T04:47:21.428Z,5.97
2019-03-17T04:49:49.872Z,5.80
2019-03-17T04:52:18.319Z,5.75
2019-03-17T04:54:46.770Z,5.67
2019-03-17T04:57:15.342Z,5.25
2019-03-17T04:59:43.776Z,5.45
2019-03-17T05:02:13.655Z,4.65
2019-03-17T05:04:43.032Z,5.22
2019-03-17T05:07:11.472Z,4.67
2019-03-17T05:09:39.954Z,5.20
2019-03-17T05:12:08.662Z,5.40
2019-03-17T05:14:37.100Z,5.08
2019-03-17T05:17:05.540Z,5.33
2019-03-17T05:19:33.983Z,5.17
2019-03-17T05:22:02.490Z,5.08
2019-03-17T05:24:30.936Z,5.08
2019-03-17T05:26:59.406Z,5.20
2019-03-17T05:29:27.843Z,5.33
2019-03-17T05:31:56.277Z,5.17
2019-03-17T05:34:25.012Z,4.72
2019-03-17T05:37:05.593Z,4.53
2019-03-17T05:39:23.579Z,4.95
2019-03-17T05:41:52.366Z,4.70
2019-03-17T05:44:20.779Z,4.33
2019-03-17T05:46:49.218Z,4.75
2019-03-17T05:49:17.688Z,4.80
2019-03-17T05:51:46.142Z,4.80
2019-03-17T05:54:14.568Z,4.47
2019-03-17T05:56:43.236Z,4.20
2019-03-17T05:59:11.681Z,4.17
2019-03-17T06:01:40.120Z,4.53
2019-03-17T06:04:08.579Z,4.15
2019-03-17T06:06:37.849Z,3.85
2019-03-17T06:09:07.457Z,3.77
2019-03-17T06:11:35.983Z,3.72
2019-03-17T06:14:04.542Z,3.87
2019-03-17T06:16:32.956Z,4.00
2019-03-17T06:19:01.574Z,4.03
2019-03-17T06:21:29.993Z,3.65
2019-03-17T06:23:58.465Z,3.80
2019-03-17T06:26:27.007Z,3.77
2019-03-17T06:28:55.446Z,4.30
2019-03-17T06:31:23.877Z,3.70
2019-03-17T06:33:52.473Z,4.28
2019-03-17T06:36:20.853Z,4.25
2019-03-17T06:38:49.272Z,4.28
2019-03-17T06:41:18.618Z,1.70
2019-03-17T06:43:47.017Z,1.10
2019-03-17T06:46:15.453Z,1.10
2019-03-17T06:48:44.378Z,1.50
2019-03-17T06:51:12.768Z,1.40
2019-03-17T06:53:41.307Z,0.90
2019-03-17T06:56:09.751Z,1.35
2019-03-17T06:58:38.187Z,1.60
2019-03-17T07:01:06.605Z,1.52
2019-03-17T07:03:35.063Z,1.45
2019-03-17T07:06:03.498Z,1.60
2019-03-17T07:08:31.922Z,1.47
2019-03-17T07:11:00.702Z,2.27
2019-03-17T07:13:29.121Z,1.90
2019-03-17T07:15:57.564Z,1.98
2019-03-17T07:18:26.022Z,2.20
2019-03-17T07:20:54.484Z,2.02
2019-03-17T07:23:22.907Z,2.65
2019-03-17T07:25:51.351Z,1.70
2019-03-17T07:28:19.780Z,1.98
2019-03-17T07:30:48.215Z,1.75
2019-03-17T07:33:16.768Z,1.70
2019-03-17T07:35:46.450Z,1.90
2019-03-17T07:38:14.955Z,1.20
2019-03-17T07:40:43.407Z,1.22
2019-03-17T07:43:11.827Z,0.98
2019-03-17T07:45:40.265Z,1.98
2019-03-17T07:48:08.955Z,2.00
2019-03-17T07:50:37.368Z,1.92
2019-03-17T07:53:06.032Z,1.42
2019-03-17T07:55:34.593Z,1.90
2019-03-17T07:58:03.012Z,1.62
2019-03-17T08:00:32.483Z,1.80
2019-03-17T08:03:01.276Z,1.90
2019-03-17T08:05:29.761Z,1.35
2019-03-17T08:08:08.840Z,1.52
2019-03-17T08:10:28.734Z,1.60
2019-03-17T08:12:57.431Z,1.50
2019-03-17T08:15:25.868Z,2.05
2019-03-17T08:17:55.655Z,1.50
2019-03-17T08:20:24.422Z,2.15
2019-03-17T08:22:56.826Z,1.67
2019-03-17T08:25:25.546Z,1.62
2019-03-17T08:27:54.473Z,1.57
2019-03-17T08:30:23.450Z,1.37
2019-03-17T08:32:52.540Z,1.82
2019-03-17T08:35:22.637Z,2.08
2019-03-17T08:37:52.056Z,1.70
2019-03-17T08:40:21.697Z,1.60
2019-03-17T08:42:50.683Z,2.15
2019-03-17T08:45:19.454Z,1.70
2019-03-17T08:47:57.921Z,1.12
2019-03-17T08:50:19.225Z,1.45
2019-03-17T08:52:48.101Z,1.95
2019-03-17T08:55:16.538Z,1.75
2019-03-17T08:57:44.970Z,1.95
2019-03-17T09:00:18.124Z,1.65
2019-03-17T09:02:46.577Z,1.80
2019-03-17T09:05:14.984Z,1.77
2019-03-17T09:07:43.653Z,2.12
2019-03-17T09:10:13.550Z,2.27
2019-03-17T09:12:41.973Z,2.10
2019-03-17T09:15:10.677Z,1.67
2019-03-17T09:17:39.272Z,1.80
2019-03-17T09:20:12.818Z,1.90
2019-03-17T09:22:41.306Z,2.05
2019-03-17T09:25:10.943Z,1.98
2019-03-17T09:27:39.546Z,2.17
2019-03-17T09:30:26.615Z,1.90
2019-03-17T09:32:56.631Z,2.10
2019-03-17T09:35:25.467Z,1.90
2019-03-17T09:37:53.910Z,2.20
2019-03-17T09:40:22.708Z,2.22
2019-03-17T09:42:51.348Z,1.80
2019-03-17T09:45:19.730Z,1.75
2019-03-17T09:47:48.634Z,1.90
2019-03-17T09:50:21.213Z,1.72
2019-03-17T09:52:49.895Z,2.10
2019-03-17T09:55:19.776Z,2.05
2019-03-17T09:57:48.966Z,1.87
2019-03-17T10:00:21.705Z,1.65
2019-03-17T10:02:50.116Z,1.87
2019-03-17T10:05:18.616Z,1.77
2019-03-17T10:07:47.048Z,1.85
2019-03-17T10:10:21.388Z,2.08
2019-03-17T10:12:50.278Z,1.72
2019-03-17T10:15:19.947Z,1.90
2019-03-17T10:17:48.446Z,1.60
2019-03-17T10:20:20.587Z,1.77
2019-03-17T10:25:17.653Z,1.60
2019-03-17T10:27:46.110Z,1.72
2019-03-17T10:30:21.888Z,1.75
2019-03-17T10:32:50.451Z,1.57
2019-03-17T10:35:19.146Z,1.52
2019-03-17T10:37:47.551Z,1.95
2019-03-17T10:40:18.336Z,1.57
2019-03-17T10:42:46.899Z,1.50
2019-03-17T10:45:16.274Z,1.40
2019-03-17T10:47:46.991Z,1.10
2019-03-17T10:50:20.909Z,1.80
2019-03-17T10:52:49.894Z,2.00
2019-03-17T10:55:18.721Z,1.87
2019-03-17T10:57:47.173Z,1.92
2019-03-17T11:00:23.730Z,1.65
2019-03-17T11:02:52.625Z,1.70
2019-03-17T11:05:21.442Z,1.45
2019-03-17T11:07:51.714Z,1.87
2019-03-17T11:10:22.468Z,1.62
2019-03-17T11:12:51.422Z,1.60
2019-03-17T11:15:21.317Z,1.65
2019-03-17T11:17:50.116Z,2.00
2019-03-17T11:20:18.802Z,1.30
2019-03-17T11:22:47.745Z,2.15
2019-03-17T11:25:18.377Z,1.30
2019-03-17T11:27:47.576Z,1.80
2019-03-17T11:30:18.099Z,1.67
2019-03-17T11:32:48.236Z,1.57
2019-03-17T11:35:17.386Z,1.72
2019-03-17T11:37:46.175Z,1.70
2019-03-17T11:40:19.871Z,1.67
2019-03-17T11:42:50.170Z,1.30
2019-03-17T11:45:19.097Z,1.90
2019-03-17T11:47:48.150Z,1.55
2019-03-17T11:50:18.382Z,1.10
2019-03-17T11:52:47.101Z,1.52
2019-03-17T11:55:15.909Z,1.37
2019-03-17T11:57:44.647Z,1.60
2019-03-17T12:00:17.751Z,1.30
2019-03-17T12:02:46.762Z,1.50
2019-03-17T12:05:15.554Z,1.62
2019-03-17T12:07:44.406Z,1.00
2019-03-17T12:10:20.274Z,1.10
2019-03-17T12:12:48.735Z,1.07
2019-03-17T12:15:21.691Z,1.02
2019-03-17T12:17:50.153Z,1.22
2019-03-17T12:20:18.715Z,1.07
2019-03-17T12:22:47.143Z,1.87
2019-03-17T12:25:17.454Z,1.80
2019-03-17T12:27:46.078Z,1.30
2019-03-17T12:30:19.592Z,1.20
2019-03-17T12:32:49.249Z,1.45
2019-03-17T12:35:17.955Z,1.57
2019-03-17T12:37:46.470Z,1.40
2019-03-17T12:40:14.997Z,1.60
2019-03-17T12:42:43.438Z,1.45
2019-03-17T12:45:12.532Z,1.50
2019-03-17T12:47:41.910Z,1.55
2019-03-17T12:50:18.395Z,1.47
2019-03-17T12:52:48.535Z,1.50
2019-03-17T12:55:17.266Z,1.52
2019-03-17T12:57:45.835Z,1.25
2019-03-17T13:00:23.425Z,1.65
2019-03-17T13:02:51.870Z,1.30
2019-03-17T13:05:20.343Z,1.12
2019-03-17T13:07:49.192Z,1.37
2019-03-17T13:10:22.260Z,1.47
2019-03-17T13:12:50.726Z,1.22
2019-03-17T13:15:19.723Z,1.60
2019-03-17T13:17:49.047Z,1.57
2019-03-17T13:20:19.248Z,1.37
2019-03-17T13:22:50.428Z,1.12
2019-03-17T13:25:20.713Z,1.15
2019-03-17T13:27:49.931Z,0.82
2019-03-17T13:30:20.879Z,1.10
2019-03-17T13:32:50.932Z,1.20
2019-03-17T13:35:21.148Z,1.15
2019-03-17T13:37:52.667Z,1.22
2019-03-17T13:40:29.585Z,1.12
2019-03-17T13:42:54.807Z,1.25
2019-03-17T13:45:23.845Z,1.20
2019-03-17T13:47:53.333Z,1.30
2019-03-17T13:50:25.888Z,1.42
2019-03-17T13:52:55.174Z,1.17
2019-03-17T13:55:23.708Z,1.20
2019-03-17T13:58:01.886Z,1.12
2019-03-17T14:00:33.549Z,1.55
2019-03-17T14:03:03.646Z,1.00
2019-03-17T14:05:36.608Z,1.32
2019-03-17T14:08:06.419Z,1.15
2019-03-17T14:10:41.081Z,0.90
2019-03-17T14:13:05.126Z,0.88
2019-03-17T14:15:33.750Z,1.02
2019-03-17T14:18:04.185Z,1.05
2019-03-17T14:20:32.940Z,1.17
2019-03-17T14:23:01.775Z,1.30
2019-03-17T14:25:33.262Z,1.25
2019-03-17T14:28:01.823Z,1.30
2019-03-17T14:30:30.553Z,1.35
2019-03-17T14:32:59.060Z,1.10
2019-03-17T14:35:27.509Z,1.32
2019-03-17T14:37:55.961Z,1.30
2019-03-17T14:40:24.483Z,1.20
2019-03-17T14:42:55.201Z,1.30
2019-03-17T14:45:23.120Z,1.20
2019-03-17T14:47:51.576Z,1.90
2019-03-17T14:50:26.478Z,1.40
2019-03-17T14:52:55.870Z,1.30
2019-03-17T14:55:24.301Z,1.50
2019-03-17T14:57:52.821Z,1.40
2019-03-17T15:00:23.149Z,1.35
2019-03-17T15:02:51.879Z,1.30
2019-03-17T15:05:20.653Z,1.45
2019-03-17T15:07:49.191Z,1.55
2019-03-17T15:10:19.038Z,1.37
2019-03-17T15:12:48.106Z,1.50
2019-03-17T15:15:23.721Z,1.55
2019-03-17T15:17:52.896Z,1.95
2019-03-17T15:20:26.614Z,1.62
2019-03-17T15:22:55.331Z,1.72
2019-03-17T15:25:24.004Z,1.20
2019-03-17T15:27:54.460Z,2.60
2019-03-17T15:30:34.177Z,1.70
2019-03-17T15:33:02.991Z,1.70
2019-03-17T15:35:31.668Z,1.72
2019-03-17T15:38:01.860Z,2.00
2019-03-17T15:40:30.731Z,1.90
2019-03-17T15:43:00.981Z,2.40
2019-03-17T15:45:29.638Z,1.52
2019-03-17T15:47:58.095Z,1.82
2019-03-17T15:50:30.992Z,2.05
2019-03-17T15:52:59.486Z,1.87
2019-03-17T15:55:27.950Z,1.52
2019-03-17T15:57:56.373Z,1.60
2019-03-17T16:00:31.660Z,2.85
2019-03-17T16:02:57.798Z,2.00
2019-03-17T16:05:26.290Z,2.00
2019-03-17T16:07:54.836Z,1.70
2019-03-17T16:10:24.999Z,2.08
2019-03-17T16:12:53.427Z,1.75
2019-03-17T16:15:21.923Z,1.90
2019-03-17T16:17:50.405Z,1.50
2019-03-17T16:20:22.863Z,1.55
2019-03-17T16:22:51.672Z,2.22
2019-03-17T16:25:25.662Z,2.15
2019-03-17T16:27:54.101Z,1.52
2019-03-17T16:30:33.802Z,2.00
2019-03-17T16:33:02.511Z,1.47
2019-03-17T16:35:31.003Z,1.42
2019-03-17T16:37:59.716Z,1.67
2019-03-17T16:40:32.990Z,1.80
2019-03-17T16:43:01.514Z,2.00
2019-03-17T16:45:30.002Z,1.70
2019-03-17T16:47:58.437Z,1.65
2019-03-17T16:50:27.005Z,1.80
2019-03-17T16:52:56.077Z,2.15
2019-03-17T16:55:26.851Z,1.85
2019-03-17T16:57:55.315Z,3.02
2019-03-17T17:00:25.174Z,1.90
2019-03-17T17:02:55.330Z,1.85
2019-03-17T17:05:24.877Z,4.22
2019-03-17T17:07:53.515Z,3.72
2019-03-17T17:10:23.687Z,3.40
2019-03-17T17:12:52.072Z,2.50
2019-03-17T17:15:25.918Z,2.50
2019-03-17T17:17:54.400Z,2.25
2019-03-17T17:20:36.270Z,2.10
2019-03-17T17:23:04.925Z,1.98
2019-03-17T17:25:33.342Z,1.52
2019-03-17T17:28:02.257Z,1.65
2019-03-17T17:30:30.671Z,2.10
2019-03-17T17:32:59.099Z,1.87
2019-03-17T17:35:27.544Z,1.42
2019-03-17T17:37:56.130Z,2.10
2019-03-17T17:40:26.045Z,4.58
2019-03-17T17:42:55.010Z,2.75
2019-03-17T17:45:26.856Z,2.30
2019-03-17T17:47:55.442Z,2.10
2019-03-17T17:50:25.987Z,2.65
2019-03-17T17:52:54.433Z,2.33
2019-03-17T17:55:22.856Z,2.83
2019-03-17T17:57:52.783Z,2.00
2019-03-17T18:00:23.582Z,1.90
2019-03-17T18:02:52.035Z,2.67
2019-03-17T18:05:20.781Z,2.77
2019-03-17T18:07:49.269Z,3.90
2019-03-17T18:10:18.646Z,2.27
2019-03-17T18:12:47.304Z,2.50
2019-03-17T18:15:21.822Z,3.25
2019-03-17T18:17:50.257Z,2.02
2019-03-17T18:20:19.038Z,2.12
2019-03-17T18:22:47.504Z,2.50
2019-03-17T18:25:17.698Z,2.25
2019-03-17T18:27:46.485Z,4.42
2019-03-17T18:30:17.514Z,3.02
2019-03-17T18:32:45.986Z,3.00
2019-03-17T18:35:14.716Z,2.00
2019-03-17T18:37:44.578Z,2.98
2019-03-17T18:40:22.882Z,2.27
2019-03-17T18:42:51.398Z,2.87
2019-03-17T18:45:21.269Z,5.15
2019-03-17T18:47:50.138Z,2.15
2019-03-17T18:50:20.562Z,2.25
2019-03-17T18:52:49.096Z,2.10
2019-03-17T18:55:17.576Z,1.98
2019-03-17T18:57:46.639Z,2.77
2019-03-17T19:00:17.260Z,2.60
2019-03-17T19:02:46.205Z,3.60
2019-03-17T19:05:15.856Z,2.77
2019-03-17T19:07:44.337Z,2.62
2019-03-17T19:10:17.452Z,2.17
2019-03-17T19:12:46.418Z,2.30
2019-03-17T19:15:18.469Z,1.50
2019-03-17T19:17:46.964Z,7.20
2019-03-17T19:20:16.871Z,2.10
2019-03-17T19:22:45.299Z,4.80
2019-03-17T19:25:25.008Z,3.92
2019-03-17T19:27:53.518Z,2.60
2019-03-17T19:30:22.886Z,2.30
2019-03-17T19:32:51.496Z,1.75
2019-03-17T19:35:20.346Z,2.17
2019-03-17T19:37:48.796Z,2.33
2019-03-17T19:40:21.402Z,3.02
2019-03-17T19:42:58.462Z,2.45
2019-03-17T19:45:20.605Z,2.37
2019-03-17T19:47:49.176Z,3.42
2019-03-17T19:50:24.122Z,2.08
2019-03-17T19:52:52.654Z,2.95
2019-03-17T19:55:21.560Z,2.35
2019-03-17T19:57:50.022Z,2.65
2019-03-17T20:00:22.384Z,2.45
2019-03-17T20:02:50.848Z,1.70
2019-03-17T20:05:19.313Z,2.83
2019-03-17T20:07:47.713Z,3.50
2019-03-17T20:10:30.035Z,3.75
2019-03-17T20:13:10.330Z,3.05
2019-03-17T20:15:28.643Z,2.92
2019-03-17T20:17:57.176Z,3.60
2019-03-17T20:20:25.617Z,3.45
2019-03-17T20:22:54.142Z,3.27
2019-03-17T20:25:22.719Z,3.15
2019-03-17T20:27:51.308Z,2.65
2019-03-17T20:30:20.198Z,3.12
2019-03-17T20:32:48.728Z,3.22
2019-03-17T20:35:17.818Z,2.65
2019-03-17T20:37:46.301Z,3.20
2019-03-17T20:40:18.697Z,2.20
2019-03-17T20:42:47.153Z,2.10
2019-03-17T20:45:16.252Z,2.70
2019-03-17T20:47:45.446Z,3.02
2019-03-17T20:50:20.119Z,2.10
2019-03-17T20:52:48.791Z,2.52
2019-03-17T20:55:17.643Z,1.75
2019-03-17T20:57:46.154Z,2.10
2019-03-17T21:00:19.366Z,1.90
2019-03-17T21:02:48.004Z,2.15
2019-03-17T21:05:16.618Z,2.42
2019-03-17T21:07:45.073Z,2.40
2019-03-17T21:10:17.698Z,2.33
2019-03-17T21:12:46.203Z,2.98
2019-03-17T21:15:15.956Z,2.02
2019-03-17T21:17:44.904Z,2.50
2019-03-17T21:20:18.224Z,3.17
2019-03-17T21:22:46.656Z,2.37
2019-03-17T21:25:15.105Z,2.10
2019-03-17T21:27:43.625Z,1.82
2019-03-17T21:30:15.066Z,2.27
2019-03-17T21:32:43.567Z,2.42
2019-03-17T21:35:12.165Z,2.60
2019-03-17T21:37:40.626Z,2.37
2019-03-17T21:40:11.330Z,2.00
2019-03-17T21:42:39.841Z,3.05
2019-03-17T21:45:10.368Z,2.00
2019-03-17T21:47:39.161Z,2.05
2019-03-17T21:50:10.698Z,2.30
2019-03-17T21:52:39.151Z,2.85
2019-03-17T21:55:09.157Z,2.30
2019-03-17T21:57:37.675Z,2.08
2019-03-17T22:00:09.527Z,2.33
2019-03-17T22:02:38.179Z,2.08
2019-03-17T22:05:06.691Z,2.02
2019-03-17T22:07:48.192Z,2.02
2019-03-17T22:10:08.668Z,2.30
2019-03-17T22:12:37.126Z,2.33
2019-03-17T22:15:08.245Z,2.20
2019-03-17T22:17:37.104Z,2.30
2019-03-17T22:20:10.465Z,1.95
2019-03-17T22:22:38.873Z,2.83
2019-03-17T22:25:09.222Z,1.85
2019-03-17T22:27:37.684Z,2.02
2019-03-17T22:30:12.001Z,2.30
2019-03-17T22:32:40.468Z,2.25
2019-03-17T22:35:10.284Z,2.02
2019-03-17T22:37:38.711Z,1.92
2019-03-17T22:40:10.482Z,2.25
2019-03-17T22:42:38.917Z,2.10
2019-03-17T22:45:14.838Z,2.37
2019-03-17T22:47:43.372Z,1.77
2019-03-17T22:50:19.639Z,2.50
2019-03-17T22:52:48.273Z,2.10
2019-03-17T22:55:16.876Z,6.25
2019-03-17T22:57:45.351Z,2.40
2019-03-17T23:00:20.574Z,2.62
2019-03-17T23:02:49.016Z,1.90
2019-03-17T23:05:17.457Z,2.22
2019-03-17T23:07:46.068Z,8.93
2019-03-17T23:10:14.474Z,2.55
2019-03-17T23:12:43.238Z,2.42
2019-03-17T23:15:13.114Z,2.58
2019-03-17T23:17:41.559Z,1.98
2019-03-17T23:20:15.349Z,1.80
2019-03-17T23:22:44.245Z,2.15
2019-03-17T23:25:12.957Z,1.72
2019-03-17T23:27:41.459Z,2.08
2019-03-17T23:30:18.303Z,1.70
2019-03-17T23:32:49.416Z,1.60
2019-03-17T23:35:18.349Z,1.72
2019-03-17T23:37:46.822Z,2.08
2019-03-17T23:40:16.384Z,2.05
2019-03-17T23:42:44.831Z,2.72
2019-03-17T23:45:14.249Z,2.30
2019-03-17T23:47:42.697Z,2.25
2019-03-17T23:50:12.962Z,2.15
2019-03-17T23:52:41.467Z,2.22
2019-03-17T23:55:12.217Z,2.30
2019-03-17T23:57:40.641Z,2.25
